createdAt,value
2019-02-21T00:00:47.519Z,21.30
2019-02-21T00:01:33.211Z,23.43
2019-02-21T00:02:16.847Z,25.80
2019-02-21T00:02:52.409Z,25.17
2019-02-21T00:03:27.963Z,23.43
2019-02-21T00:04:03.543Z,22.97
2019-02-21T00:04:39.145Z,23.67
2019-02-21T00:05:14.712Z,20.70
2019-02-21T00:05:50.435Z,22.23
2019-02-21T00:06:27.009Z,21.57
2019-02-21T00:07:02.559Z,24.83
2019-02-21T00:07:38.970Z,23.17
2019-02-21T00:08:14.571Z,22.53
2019-02-21T00:08:50.568Z,26.00
2019-02-21T00:09:26.115Z,20.83
2019-02-21T00:10:01.660Z,21.00
2019-02-21T00:10:38.379Z,21.77
2019-02-21T00:11:14.000Z,22.07
2019-02-21T00:11:49.566Z,21.13
2019-02-21T00:12:25.185Z,22.10
2019-02-21T00:13:00.703Z,23.30
2019-02-21T00:13:36.313Z,23.73
2019-02-21T00:14:12.334Z,23.27
2019-02-21T00:14:47.943Z,24.17
2019-02-21T00:15:23.778Z,20.80
2019-02-21T00:15:59.307Z,22.13
2019-02-21T00:16:34.903Z,22.47
2019-02-21T00:17:10.459Z,23.10
2019-02-21T00:17:46.539Z,21.60
2019-02-21T00:18:22.069Z,22.60
2019-02-21T00:18:57.630Z,22.60
2019-02-21T00:19:33.179Z,22.57
2019-02-21T00:20:08.967Z,20.00
2019-02-21T00:20:45.638Z,21.63
2019-02-21T00:21:21.159Z,19.90
2019-02-21T00:21:56.686Z,19.90
2019-02-21T00:22:32.290Z,25.67
2019-02-21T00:23:07.851Z,20.23
2019-02-21T00:23:43.406Z,22.93
2019-02-21T00:24:20.011Z,20.77
2019-02-21T00:24:55.707Z,20.47
2019-02-21T00:25:31.314Z,20.37
2019-02-21T00:26:06.867Z,22.50
2019-02-21T00:26:44.267Z,21.67
2019-02-21T00:27:20.124Z,20.13
2019-02-21T00:27:55.942Z,18.87
2019-02-21T00:28:31.599Z,20.13
2019-02-21T00:29:07.193Z,22.40
2019-02-21T00:29:42.781Z,24.47
2019-02-21T00:30:18.363Z,22.10
2019-02-21T00:30:53.899Z,22.13
2019-02-21T00:31:29.496Z,21.80
2019-02-21T00:32:05.098Z,20.83
2019-02-21T00:32:40.828Z,21.17
2019-02-21T00:33:16.775Z,22.93
2019-02-21T00:33:52.360Z,20.63
2019-02-21T00:34:28.226Z,23.50
2019-02-21T00:35:03.979Z,21.37
2019-02-21T00:35:39.752Z,23.87
2019-02-21T00:36:15.948Z,23.10
2019-02-21T00:36:51.567Z,23.17
2019-02-21T00:37:27.353Z,23.60
2019-02-21T00:38:02.866Z,19.47
2019-02-21T00:38:38.402Z,22.67
2019-02-21T00:39:13.925Z,22.13
2019-02-21T00:39:49.459Z,21.27
2019-02-21T00:40:25.106Z,25.37
2019-02-21T00:41:01.598Z,22.70
2019-02-21T00:41:37.192Z,24.93
2019-02-21T00:42:12.730Z,22.90
2019-02-21T00:42:48.259Z,22.23
2019-02-21T00:43:23.802Z,22.53
2019-02-21T00:43:59.333Z,23.13
2019-02-21T00:44:34.866Z,19.77
2019-02-21T00:45:10.651Z,23.40
2019-02-21T00:45:46.275Z,22.30
2019-02-21T00:46:21.799Z,21.87
2019-02-21T00:46:58.450Z,21.47
2019-02-21T00:47:34.068Z,22.23
2019-02-21T00:48:09.651Z,23.47
2019-02-21T00:48:45.347Z,22.00
2019-02-21T00:49:21.174Z,22.23
2019-02-21T00:49:56.991Z,20.10
2019-02-21T00:50:32.539Z,21.70
2019-02-21T00:51:08.084Z,22.07
2019-02-21T00:51:43.679Z,21.73
2019-02-21T00:52:19.280Z,21.33
2019-02-21T00:52:54.802Z,25.90
2019-02-21T00:53:30.351Z,22.23
2019-02-21T00:54:07.766Z,22.47
2019-02-21T00:54:43.642Z,24.30
2019-02-21T00:55:19.187Z,23.23
2019-02-21T00:55:55.079Z,20.73
2019-02-21T00:56:30.614Z,22.17
2019-02-21T00:57:06.162Z,20.30
2019-02-21T00:57:42.077Z,20.50
2019-02-21T00:58:17.584Z,19.73
2019-02-21T00:58:53.374Z,19.17
2019-02-21T00:59:28.930Z,22.73
2019-02-21T01:00:04.818Z,20.60
2019-02-21T01:00:46.515Z,21.27
2019-02-21T01:01:20.872Z,20.77
2019-02-21T01:01:56.619Z,22.67
2019-02-21T01:02:32.563Z,21.93
2019-02-21T01:03:08.342Z,20.23
2019-02-21T01:03:43.902Z,22.57
2019-02-21T01:04:19.469Z,23.30
2019-02-21T01:04:54.991Z,18.83
2019-02-21T01:05:32.871Z,30.67
2019-02-21T01:06:08.416Z,20.87
2019-02-21T01:06:44.022Z,23.93
2019-02-21T01:07:19.555Z,18.90
2019-02-21T01:07:55.395Z,23.97
2019-02-21T01:08:31.034Z,22.47
2019-02-21T01:09:06.561Z,23.47
2019-02-21T01:09:42.307Z,22.43
2019-02-21T01:10:17.878Z,20.60
2019-02-21T01:10:53.432Z,24.40
2019-02-21T01:11:29.015Z,24.57
2019-02-21T01:12:04.841Z,25.93
2019-02-21T01:12:40.404Z,20.63
2019-02-21T01:13:15.937Z,23.97
2019-02-21T01:13:51.867Z,25.40
2019-02-21T01:14:27.394Z,19.57
2019-02-21T01:15:03.204Z,25.03
2019-02-21T01:15:41.093Z,23.07
2019-02-21T01:16:16.656Z,22.87
2019-02-21T01:16:52.256Z,21.77
2019-02-21T01:17:28.886Z,20.90
2019-02-21T01:18:04.430Z,20.70
2019-02-21T01:18:40.591Z,22.40
2019-02-21T01:19:16.190Z,24.50
2019-02-21T01:19:51.727Z,26.23
2019-02-21T01:20:27.337Z,23.47
2019-02-21T01:21:02.868Z,22.20
2019-02-21T01:21:38.490Z,21.47
2019-02-21T01:22:14.043Z,23.13
2019-02-21T01:22:49.627Z,21.10
2019-02-21T01:23:26.688Z,23.53
2019-02-21T01:24:04.937Z,22.57
2019-02-21T01:24:39.768Z,20.77
2019-02-21T01:25:15.306Z,24.30
2019-02-21T01:25:52.632Z,23.00
2019-02-21T01:26:28.194Z,25.93
2019-02-21T01:27:03.787Z,24.83
2019-02-21T01:27:39.329Z,23.13
2019-02-21T01:28:14.899Z,25.97
2019-02-21T01:28:50.562Z,22.37
2019-02-21T01:29:26.081Z,25.37
2019-02-21T01:30:01.725Z,24.93
2019-02-21T01:30:38.226Z,26.17
2019-02-21T01:31:13.790Z,22.13
2019-02-21T01:31:49.622Z,20.63
2019-02-21T01:32:25.158Z,21.63
2019-02-21T01:33:00.947Z,24.53
2019-02-21T01:33:36.739Z,20.60
2019-02-21T01:34:13.497Z,20.17
2019-02-21T01:34:49.348Z,20.73
2019-02-21T01:35:24.930Z,21.10
2019-02-21T01:36:00.732Z,21.47
2019-02-21T01:36:36.564Z,23.63
2019-02-21T01:37:12.210Z,24.87
2019-02-21T01:37:47.754Z,19.20
2019-02-21T01:38:23.302Z,20.07
2019-02-21T01:38:58.850Z,22.60
2019-02-21T01:39:34.543Z,22.97
2019-02-21T01:40:10.103Z,19.70
2019-02-21T01:40:45.946Z,22.13
2019-02-21T01:41:21.851Z,21.00
2019-02-21T01:41:57.461Z,22.83
2019-02-21T01:42:32.991Z,21.63
2019-02-21T01:43:08.563Z,20.00
2019-02-21T01:43:44.100Z,25.03
2019-02-21T01:44:19.688Z,19.83
2019-02-21T01:44:55.278Z,23.90
2019-02-21T01:45:30.825Z,21.67
2019-02-21T01:46:06.802Z,23.60
2019-02-21T01:46:42.388Z,22.43
2019-02-21T01:47:17.999Z,23.33
2019-02-21T01:47:53.566Z,26.00
2019-02-21T01:48:29.692Z,24.37
2019-02-21T01:49:05.699Z,23.27
2019-02-21T01:49:41.540Z,24.20
2019-02-21T01:50:17.131Z,23.53
2019-02-21T01:50:52.762Z,22.37
2019-02-21T01:51:28.371Z,22.23
2019-02-21T01:52:03.914Z,22.37
2019-02-21T01:52:39.691Z,20.53
2019-02-21T01:53:15.355Z,23.17
2019-02-21T01:53:50.902Z,21.97
2019-02-21T01:54:27.144Z,20.27
2019-02-21T01:55:02.667Z,20.13
2019-02-21T01:55:38.235Z,24.27
2019-02-21T01:56:14.747Z,26.07
2019-02-21T01:56:50.337Z,25.80
2019-02-21T01:57:25.963Z,21.40
2019-02-21T01:58:01.927Z,31.93
2019-02-21T01:58:37.450Z,26.33
2019-02-21T01:59:12.994Z,20.53
2019-02-21T01:59:48.579Z,20.97
2019-02-21T02:00:24.108Z,25.57
2019-02-21T02:01:07.891Z,29.80
2019-02-21T02:01:36.951Z,22.27
2019-02-21T02:02:12.566Z,26.03
2019-02-21T02:02:48.107Z,21.43
2019-02-21T02:03:23.776Z,24.00
2019-02-21T02:03:59.394Z,21.60
2019-02-21T02:04:34.947Z,25.77
2019-02-21T02:05:10.495Z,23.07
2019-02-21T02:05:46.940Z,21.43
2019-02-21T02:06:22.804Z,21.40
2019-02-21T02:06:58.676Z,21.37
2019-02-21T02:07:34.619Z,26.00
2019-02-21T02:08:12.559Z,22.90
2019-02-21T02:08:48.086Z,26.83
2019-02-21T02:09:23.699Z,25.73
2019-02-21T02:09:59.251Z,25.73
2019-02-21T02:10:34.803Z,24.97
2019-02-21T02:11:10.430Z,22.23
2019-02-21T02:11:46.044Z,24.80
2019-02-21T02:12:21.928Z,21.23
2019-02-21T02:12:58.793Z,23.03
2019-02-21T02:13:34.351Z,23.33
2019-02-21T02:14:09.928Z,25.80
2019-02-21T02:14:46.574Z,24.70
2019-02-21T02:15:22.463Z,27.30
2019-02-21T02:15:57.991Z,21.87
2019-02-21T02:16:33.515Z,22.73
2019-02-21T02:17:09.747Z,23.20
2019-02-21T02:17:45.267Z,23.53
2019-02-21T02:18:20.805Z,24.40
2019-02-21T02:18:56.334Z,22.50
2019-02-21T02:19:31.960Z,24.57
2019-02-21T02:20:07.528Z,20.73
2019-02-21T02:20:43.309Z,27.07
2019-02-21T02:21:18.831Z,26.67
2019-02-21T02:21:54.381Z,22.47
2019-02-21T02:22:29.966Z,21.07
2019-02-21T02:23:05.582Z,21.73
2019-02-21T02:23:41.455Z,23.10
2019-02-21T02:24:17.006Z,20.37
2019-02-21T02:24:52.566Z,21.53
2019-02-21T02:25:28.791Z,25.03
2019-02-21T02:26:04.606Z,20.97
2019-02-21T02:26:40.122Z,26.83
2019-02-21T02:27:15.701Z,23.53
2019-02-21T02:27:51.655Z,22.53
2019-02-21T02:28:27.237Z,24.80
2019-02-21T02:29:02.818Z,24.20
2019-02-21T02:29:38.423Z,25.03
2019-02-21T02:30:14.355Z,25.47
2019-02-21T02:30:49.916Z,24.60
2019-02-21T02:31:25.457Z,25.03
2019-02-21T02:32:01.379Z,22.30
2019-02-21T02:32:37.033Z,21.80
2019-02-21T02:33:12.666Z,22.77
2019-02-21T02:33:48.293Z,24.63
2019-02-21T02:34:23.862Z,23.70
2019-02-21T02:34:59.999Z,20.70
2019-02-21T02:35:35.633Z,21.53
2019-02-21T02:36:12.263Z,21.00
2019-02-21T02:36:48.243Z,23.47
2019-02-21T02:37:23.795Z,22.53
2019-02-21T02:37:59.347Z,22.27
2019-02-21T02:38:34.894Z,24.90
2019-02-21T02:39:10.590Z,27.20
2019-02-21T02:39:46.149Z,22.97
2019-02-21T02:40:23.512Z,21.23
2019-02-21T02:40:59.075Z,20.43
2019-02-21T02:41:35.144Z,23.57
2019-02-21T02:42:10.776Z,23.03
2019-02-21T02:42:47.386Z,24.77
2019-02-21T02:43:23.179Z,24.30
2019-02-21T02:43:58.779Z,22.10
2019-02-21T02:44:34.332Z,22.20
2019-02-21T02:45:09.948Z,21.57
2019-02-21T02:45:45.748Z,23.57
2019-02-21T02:46:21.280Z,22.40
2019-02-21T02:46:56.946Z,22.53
2019-02-21T02:47:33.693Z,21.43
2019-02-21T02:48:09.659Z,19.30
2019-02-21T02:48:45.219Z,25.23
2019-02-21T02:49:20.892Z,23.80
2019-02-21T02:49:56.694Z,23.90
2019-02-21T02:50:32.645Z,19.50
2019-02-21T02:51:08.210Z,19.67
2019-02-21T02:51:44.087Z,23.70
2019-02-21T02:52:19.692Z,23.00
2019-02-21T02:52:55.270Z,24.83
2019-02-21T02:53:30.818Z,20.60
2019-02-21T02:54:06.701Z,19.17
2019-02-21T02:54:42.248Z,22.57
2019-02-21T02:55:17.786Z,22.80
2019-02-21T02:55:53.332Z,19.40
2019-02-21T02:56:29.331Z,18.83
2019-02-21T02:57:05.583Z,26.77
2019-02-21T02:57:41.458Z,18.87
2019-02-21T02:58:17.511Z,23.47
2019-02-21T02:58:53.048Z,24.93
2019-02-21T02:59:40.018Z,19.47
2019-02-21T03:00:06.768Z,22.53
2019-02-21T03:00:42.697Z,20.33
2019-02-21T03:01:18.231Z,19.77
2019-02-21T03:01:53.846Z,19.97
2019-02-21T03:02:29.781Z,18.60
2019-02-21T03:03:05.317Z,20.83
2019-02-21T03:03:41.178Z,20.17
2019-02-21T03:04:17.118Z,20.67
2019-02-21T03:04:52.677Z,21.67
2019-02-21T03:05:28.476Z,18.03
2019-02-21T03:06:04.037Z,22.37
2019-02-21T03:06:40.791Z,21.07
2019-02-21T03:07:16.827Z,19.80
2019-02-21T03:07:52.379Z,19.87
2019-02-21T03:08:28.183Z,19.70
2019-02-21T03:09:04.399Z,19.87
2019-02-21T03:09:41.590Z,20.93
2019-02-21T03:10:17.928Z,20.37
2019-02-21T03:10:53.550Z,21.50
2019-02-21T03:11:29.744Z,19.70
2019-02-21T03:12:05.625Z,18.67
2019-02-21T03:12:41.268Z,22.40
2019-02-21T03:13:16.886Z,20.30
2019-02-21T03:13:52.810Z,22.90
2019-02-21T03:14:28.354Z,24.50
2019-02-21T03:15:04.448Z,25.23
2019-02-21T03:15:40.169Z,21.60
2019-02-21T03:16:15.699Z,19.80
2019-02-21T03:16:51.462Z,21.97
2019-02-21T03:17:27.055Z,23.57
2019-02-21T03:18:04.218Z,20.57
2019-02-21T03:18:39.779Z,19.77
2019-02-21T03:19:15.317Z,21.57
2019-02-21T03:19:50.883Z,22.47
2019-02-21T03:20:26.487Z,20.47
2019-02-21T03:21:02.117Z,17.77
2019-02-21T03:21:37.658Z,21.63
2019-02-21T03:22:13.214Z,20.60
2019-02-21T03:22:50.008Z,22.80
2019-02-21T03:23:25.807Z,21.47
2019-02-21T03:24:01.355Z,24.57
2019-02-21T03:24:37.188Z,18.83
2019-02-21T03:25:12.744Z,24.40
2019-02-21T03:25:48.986Z,21.87
2019-02-21T03:26:24.529Z,20.63
2019-02-21T03:27:00.060Z,21.97
2019-02-21T03:27:35.597Z,20.47
2019-02-21T03:28:12.372Z,22.20
2019-02-21T03:28:47.950Z,21.53
2019-02-21T03:29:24.560Z,20.90
2019-02-21T03:30:00.387Z,21.50
2019-02-21T03:30:36.132Z,22.03
2019-02-21T03:31:12.021Z,18.80
2019-02-21T03:31:54.288Z,21.23
2019-02-21T03:32:24.855Z,21.87
2019-02-21T03:33:00.409Z,23.03
2019-02-21T03:33:36.073Z,19.97
2019-02-21T03:34:12.022Z,20.93
2019-02-21T03:34:47.598Z,19.50
2019-02-21T03:35:24.207Z,20.43
2019-02-21T03:35:59.767Z,20.33
2019-02-21T03:36:35.328Z,23.67
2019-02-21T03:37:10.969Z,19.50
2019-02-21T03:37:46.607Z,21.13
2019-02-21T03:38:22.436Z,18.80
2019-02-21T03:38:58.019Z,22.17
2019-02-21T03:39:33.628Z,21.87
2019-02-21T03:40:09.281Z,20.47
2019-02-21T03:40:44.848Z,22.37
2019-02-21T03:41:20.452Z,22.07
2019-02-21T03:41:55.986Z,21.93
2019-02-21T03:42:31.547Z,21.03
2019-02-21T03:43:07.347Z,24.17
2019-02-21T03:43:42.994Z,21.40
2019-02-21T03:44:18.551Z,21.07
2019-02-21T03:44:54.088Z,22.57
2019-02-21T03:45:29.648Z,21.73
2019-02-21T03:46:05.202Z,21.07
2019-02-21T03:46:41.046Z,21.27
2019-02-21T03:47:16.578Z,22.07
2019-02-21T03:47:52.176Z,21.60
2019-02-21T03:48:27.715Z,22.97
2019-02-21T03:49:03.251Z,24.33
2019-02-21T03:49:38.783Z,23.77
2019-02-21T03:50:14.488Z,23.97
2019-02-21T03:50:50.283Z,24.10
2019-02-21T03:51:25.863Z,26.43
2019-02-21T03:52:02.382Z,21.80
2019-02-21T03:52:38.008Z,21.17
2019-02-21T03:53:13.550Z,22.63
2019-02-21T03:53:49.107Z,22.40
2019-02-21T03:54:24.652Z,23.87
2019-02-21T03:55:00.430Z,25.30
2019-02-21T03:55:36.115Z,21.83
2019-02-21T03:56:13.266Z,22.97
2019-02-21T03:56:49.130Z,21.93
2019-02-21T03:57:24.669Z,20.03
2019-02-21T03:58:00.235Z,24.57
2019-02-21T03:58:36.411Z,21.27
2019-02-21T03:59:12.920Z,23.03
2019-02-21T03:59:48.479Z,22.60
2019-02-21T04:00:24.079Z,22.20
2019-02-21T04:00:59.894Z,22.07
2019-02-21T04:01:35.495Z,20.27
2019-02-21T04:02:11.099Z,22.30
2019-02-21T04:02:47.312Z,21.40
2019-02-21T04:03:22.892Z,23.40
2019-02-21T04:03:58.507Z,24.03
2019-02-21T04:04:35.322Z,22.03
2019-02-21T04:05:11.049Z,23.87
2019-02-21T04:05:46.717Z,24.50
2019-02-21T04:06:22.355Z,30.03
2019-02-21T04:06:57.936Z,28.33
2019-02-21T04:07:33.506Z,23.93
2019-02-21T04:08:09.174Z,25.53
2019-02-21T04:08:45.023Z,25.63
2019-02-21T04:09:20.663Z,24.40
2019-02-21T04:09:56.205Z,23.03
2019-02-21T04:10:31.781Z,20.13
2019-02-21T04:11:07.371Z,27.67
2019-02-21T04:11:43.277Z,24.07
2019-02-21T04:12:18.823Z,22.00
2019-02-21T04:12:54.727Z,25.70
2019-02-21T04:13:30.528Z,25.77
2019-02-21T04:14:06.409Z,26.87
2019-02-21T04:14:42.620Z,22.60
2019-02-21T04:15:18.648Z,20.57
2019-02-21T04:15:54.527Z,27.53
2019-02-21T04:16:30.099Z,21.53
2019-02-21T04:17:05.651Z,23.17
2019-02-21T04:17:42.205Z,21.93
2019-02-21T04:18:17.740Z,25.33
2019-02-21T04:18:53.295Z,22.23
2019-02-21T04:19:28.838Z,21.53
2019-02-21T04:20:04.690Z,21.97
2019-02-21T04:20:40.320Z,22.43
2019-02-21T04:21:15.882Z,24.43
2019-02-21T04:21:51.434Z,24.07
2019-02-21T04:22:26.984Z,25.80
2019-02-21T04:23:02.812Z,21.30
2019-02-21T04:23:38.471Z,24.20
2019-02-21T04:24:14.019Z,25.10
2019-02-21T04:24:49.576Z,24.87
2019-02-21T04:25:25.126Z,22.80
2019-02-21T04:26:00.705Z,28.10
2019-02-21T04:26:36.244Z,26.67
2019-02-21T04:27:11.861Z,23.70
2019-02-21T04:27:47.503Z,23.57
2019-02-21T04:28:23.379Z,27.40
2019-02-21T04:28:58.956Z,26.43
2019-02-21T04:29:34.650Z,23.47
2019-02-21T04:30:10.199Z,27.97
2019-02-21T04:30:45.759Z,27.50
2019-02-21T04:31:21.586Z,24.23
2019-02-21T04:31:57.195Z,24.27
2019-02-21T04:32:32.807Z,27.83
2019-02-21T04:33:08.350Z,26.00
2019-02-21T04:33:44.543Z,24.03
2019-02-21T04:34:20.074Z,26.23
2019-02-21T04:34:55.620Z,23.37
2019-02-21T04:35:31.227Z,26.10
2019-02-21T04:36:06.780Z,23.97
2019-02-21T04:36:42.336Z,23.33
2019-02-21T04:37:17.866Z,27.73
2019-02-21T04:37:53.448Z,26.27
2019-02-21T04:38:29.001Z,25.17
2019-02-21T04:39:04.987Z,22.33
2019-02-21T04:39:41.654Z,24.13
2019-02-21T04:40:17.192Z,25.07
2019-02-21T04:40:52.812Z,21.60
2019-02-21T04:41:28.366Z,27.03
2019-02-21T04:42:04.476Z,23.53
2019-02-21T04:42:40.028Z,22.93
2019-02-21T04:43:16.867Z,23.83
2019-02-21T04:43:52.650Z,25.33
2019-02-21T04:44:28.203Z,23.20
2019-02-21T04:45:03.816Z,25.60
2019-02-21T04:45:39.747Z,23.20
2019-02-21T04:46:15.313Z,26.20
2019-02-21T04:46:50.867Z,22.60
2019-02-21T04:47:26.446Z,21.60
2019-02-21T04:48:02.401Z,26.13
2019-02-21T04:48:37.967Z,24.87
2019-02-21T04:49:13.839Z,24.20
2019-02-21T04:49:49.410Z,25.20
2019-02-21T04:50:25.331Z,24.27
2019-02-21T04:51:01.254Z,26.30
2019-02-21T04:51:36.815Z,26.63
2019-02-21T04:52:12.454Z,25.33
2019-02-21T04:52:48.958Z,24.00
2019-02-21T04:53:24.558Z,25.00
2019-02-21T04:54:00.124Z,23.67
2019-02-21T04:54:35.686Z,23.27
2019-02-21T04:55:11.356Z,25.47
2019-02-21T04:55:47.198Z,25.23
2019-02-21T04:56:22.857Z,25.17
2019-02-21T04:56:58.401Z,23.43
2019-02-21T04:57:34.016Z,23.30
2019-02-21T04:58:11.273Z,30.83
2019-02-21T04:58:46.813Z,27.37
2019-02-21T04:59:22.369Z,28.33
2019-02-21T04:59:57.918Z,24.27
2019-02-21T05:00:33.468Z,25.43
2019-02-21T05:01:09.035Z,26.77
2019-02-21T05:01:45.267Z,28.67
2019-02-21T05:02:28.955Z,26.03
2019-02-21T05:02:58.085Z,27.23
2019-02-21T05:03:33.941Z,25.07
2019-02-21T05:04:09.594Z,29.70
2019-02-21T05:04:45.142Z,26.10
2019-02-21T05:05:20.714Z,28.00
2019-02-21T05:05:56.467Z,24.10
2019-02-21T05:06:32.041Z,28.67
2019-02-21T05:07:07.594Z,30.23
2019-02-21T05:07:43.205Z,25.93
2019-02-21T05:08:18.849Z,24.97
2019-02-21T05:08:54.742Z,27.93
2019-02-21T05:09:30.339Z,27.53
2019-02-21T05:10:05.891Z,26.90
2019-02-21T05:10:41.911Z,23.80
2019-02-21T05:11:17.490Z,25.70
2019-02-21T05:11:53.055Z,27.57
2019-02-21T05:12:28.601Z,29.40
2019-02-21T05:13:04.410Z,28.80
2019-02-21T05:13:39.969Z,26.27
2019-02-21T05:14:15.540Z,29.07
2019-02-21T05:14:52.423Z,28.60
2019-02-21T05:15:28.647Z,27.40
2019-02-21T05:16:04.493Z,25.27
2019-02-21T05:16:40.080Z,28.13
2019-02-21T05:17:15.638Z,30.43
2019-02-21T05:17:51.522Z,29.83
2019-02-21T05:18:27.064Z,29.70
2019-02-21T05:19:02.712Z,29.90
2019-02-21T05:19:38.262Z,29.63
2019-02-21T05:20:13.821Z,30.30
2019-02-21T05:20:49.443Z,27.60
2019-02-21T05:21:24.980Z,26.40
2019-02-21T05:22:00.859Z,30.17
2019-02-21T05:22:36.819Z,27.37
2019-02-21T05:23:13.331Z,26.80
2019-02-21T05:23:48.912Z,26.50
2019-02-21T05:24:24.776Z,26.57
2019-02-21T05:25:00.700Z,31.20
2019-02-21T05:25:36.271Z,26.60
2019-02-21T05:26:14.371Z,29.00
2019-02-21T05:26:56.668Z,28.07
2019-02-21T05:27:35.285Z,28.20
2019-02-21T05:28:22.357Z,28.40
2019-02-21T05:28:58.518Z,29.03
2019-02-21T05:29:34.066Z,26.00
2019-02-21T05:30:11.796Z,27.43
2019-02-21T05:30:48.606Z,28.83
2019-02-21T05:31:42.166Z,31.87
2019-02-21T05:32:24.832Z,31.30
2019-02-21T05:33:19.481Z,26.43
2019-02-21T05:34:08.584Z,30.17
2019-02-21T05:35:02.316Z,29.47
2019-02-21T05:35:44.440Z,31.80
2019-02-21T05:36:54.229Z,27.03
2019-02-21T05:37:38.507Z,27.90
2019-02-21T05:38:24.374Z,28.07
2019-02-21T05:39:19.722Z,28.53
2019-02-21T05:40:17.130Z,27.67
2019-02-21T05:41:07.375Z,26.93
2019-02-21T05:42:04.805Z,30.93
2019-02-21T05:42:59.451Z,31.00
2019-02-21T05:44:00.671Z,29.70
2019-02-21T05:45:10.754Z,26.73
2019-02-21T05:46:03.259Z,29.83
2019-02-21T05:46:57.979Z,32.00
2019-02-21T05:47:53.579Z,28.17
2019-02-21T05:48:53.475Z,30.80
2019-02-21T05:49:48.115Z,37.17
2019-02-21T05:50:32.992Z,30.33
2019-02-21T05:51:27.663Z,33.83
2019-02-21T05:52:20.443Z,29.50
2019-02-21T05:53:10.702Z,32.27
2019-02-21T05:53:54.012Z,32.27
2019-02-21T05:54:57.598Z,31.33
2019-02-21T05:55:48.280Z,32.40
2019-02-21T05:56:42.921Z,32.10
2019-02-21T05:57:53.076Z,33.50
2019-02-21T05:58:36.782Z,34.87
2019-02-21T05:59:20.339Z,33.90
2019-02-21T06:00:09.996Z,30.40
2019-02-21T06:01:04.665Z,31.33
2019-02-21T06:02:11.800Z,34.30
2019-02-21T06:02:55.819Z,33.77
2019-02-21T06:03:50.463Z,28.50
2019-02-21T06:04:47.950Z,29.63
2019-02-21T06:05:48.713Z,32.03
2019-02-21T06:06:55.661Z,31.40
2019-02-21T06:07:45.106Z,35.80
2019-02-21T06:08:47.291Z,34.33
2019-02-21T06:09:37.638Z,34.67
2019-02-21T06:10:38.729Z,32.27
2019-02-21T06:11:35.025Z,29.20
2019-02-21T06:12:33.118Z,31.87
2019-02-21T06:13:23.640Z,35.63
2019-02-21T06:14:09.087Z,32.23
2019-02-21T06:15:02.564Z,31.03
2019-02-21T06:15:57.447Z,33.77
2019-02-21T06:16:43.308Z,38.30
2019-02-21T06:17:29.091Z,32.70
2019-02-21T06:18:22.861Z,33.70
2019-02-21T06:19:23.649Z,34.73
2019-02-21T06:20:18.297Z,33.03
2019-02-21T06:21:06.485Z,38.17
2019-02-21T06:22:09.686Z,35.00
2019-02-21T06:22:53.434Z,35.03
2019-02-21T06:23:54.284Z,29.37
2019-02-21T06:24:35.070Z,34.07
2019-02-21T06:25:16.943Z,40.27
2019-02-21T06:26:14.802Z,37.10
2019-02-21T06:27:01.296Z,31.93
2019-02-21T06:27:41.491Z,31.47
2019-02-21T06:28:36.146Z,31.07
2019-02-21T06:29:16.363Z,35.87
2019-02-21T06:29:56.732Z,35.97
2019-02-21T06:30:37.146Z,36.70
2019-02-21T06:31:15.968Z,33.07
2019-02-21T06:31:51.938Z,37.40
2019-02-21T06:32:27.510Z,34.17
2019-02-21T06:33:05.383Z,35.53
2019-02-21T06:33:40.341Z,39.40
2019-02-21T06:34:15.924Z,39.33
2019-02-21T06:34:52.365Z,37.07
2019-02-21T06:35:28.298Z,39.00
2019-02-21T06:36:04.191Z,38.97
2019-02-21T06:36:39.760Z,37.63
2019-02-21T06:37:15.318Z,34.80
2019-02-21T06:37:51.678Z,35.90
2019-02-21T06:38:27.587Z,42.67
2019-02-21T06:39:04.134Z,36.60
2019-02-21T06:39:40.023Z,37.00
2019-02-21T06:40:15.954Z,36.13
2019-02-21T06:40:51.803Z,37.93
2019-02-21T06:41:29.897Z,41.00
2019-02-21T06:42:05.951Z,37.57
2019-02-21T06:42:41.786Z,41.43
2019-02-21T06:43:17.339Z,39.37
2019-02-21T06:43:53.155Z,40.10
2019-02-21T06:44:28.715Z,36.70
2019-02-21T06:45:04.697Z,39.83
2019-02-21T06:45:41.346Z,37.90
2019-02-21T06:46:16.903Z,41.60
2019-02-21T06:46:52.479Z,40.03
2019-02-21T06:47:28.611Z,44.23
2019-02-21T06:48:04.159Z,38.50
2019-02-21T06:48:40.189Z,39.87
2019-02-21T06:49:16.050Z,40.63
2019-02-21T06:49:51.975Z,41.80
2019-02-21T06:50:27.555Z,39.93
2019-02-21T06:51:04.090Z,36.17
2019-02-21T06:51:39.653Z,38.07
2019-02-21T06:52:15.745Z,36.37
2019-02-21T06:52:51.497Z,40.03
2019-02-21T06:53:27.042Z,35.97
2019-02-21T06:54:02.603Z,41.77
2019-02-21T06:54:38.178Z,34.93
2019-02-21T06:55:13.990Z,47.20
2019-02-21T06:55:49.546Z,41.17
2019-02-21T06:56:25.126Z,36.67
2019-02-21T06:57:00.711Z,42.27
2019-02-21T06:57:36.258Z,42.57
2019-02-21T06:58:11.902Z,37.63
2019-02-21T06:58:47.473Z,44.30
2019-02-21T06:59:23.806Z,43.60
2019-02-21T06:59:59.592Z,40.17
2019-02-21T07:00:35.491Z,45.37
2019-02-21T07:01:11.404Z,40.47
2019-02-21T07:01:47.067Z,41.53
2019-02-21T07:02:23.595Z,42.67
2019-02-21T07:02:59.240Z,40.07
2019-02-21T07:03:34.923Z,45.50
2019-02-21T07:04:10.559Z,39.80
2019-02-21T07:04:46.442Z,40.30
2019-02-21T07:05:22.283Z,41.03
2019-02-21T07:05:58.461Z,43.77
2019-02-21T07:06:34.020Z,40.97
2019-02-21T07:07:09.648Z,42.90
2019-02-21T07:07:45.238Z,38.47
2019-02-21T07:08:20.794Z,42.97
2019-02-21T07:08:56.354Z,39.63
2019-02-21T07:09:31.938Z,43.80
2019-02-21T07:10:07.661Z,38.20
2019-02-21T07:10:43.214Z,43.33
2019-02-21T07:11:19.133Z,42.50
2019-02-21T07:11:54.722Z,42.93
2019-02-21T07:12:30.602Z,42.33
2019-02-21T07:13:06.258Z,42.07
2019-02-21T07:13:41.823Z,44.67
2019-02-21T07:14:17.390Z,40.53
2019-02-21T07:14:54.279Z,37.77
2019-02-21T07:15:29.856Z,40.13
2019-02-21T07:16:05.755Z,39.23
2019-02-21T07:16:41.418Z,40.53
2019-02-21T07:17:16.976Z,40.37
2019-02-21T07:17:52.543Z,40.97
2019-02-21T07:18:28.984Z,37.60
2019-02-21T07:19:04.743Z,45.30
2019-02-21T07:19:40.483Z,43.03
2019-02-21T07:20:16.085Z,39.83
2019-02-21T07:20:51.670Z,41.70
2019-02-21T07:21:27.223Z,39.27
2019-02-21T07:22:06.074Z,40.47
2019-02-21T07:22:40.936Z,43.30
2019-02-21T07:23:16.491Z,40.70
2019-02-21T07:23:52.068Z,44.13
2019-02-21T07:24:27.687Z,38.50
2019-02-21T07:25:13.119Z,41.90
2019-02-21T07:25:51.475Z,37.43
2019-02-21T07:26:27.047Z,38.67
2019-02-21T07:27:02.640Z,44.73
2019-02-21T07:27:38.202Z,43.00
2019-02-21T07:28:15.927Z,44.90
2019-02-21T07:28:51.032Z,39.53
2019-02-21T07:29:26.600Z,45.90
2019-02-21T07:30:02.200Z,41.20
2019-02-21T07:30:37.936Z,38.33
2019-02-21T07:31:13.502Z,43.53
2019-02-21T07:31:49.517Z,43.10
2019-02-21T07:32:25.282Z,46.87
2019-02-21T07:33:01.267Z,38.77
2019-02-21T07:33:37.095Z,42.33
2019-02-21T07:34:12.961Z,44.70
2019-02-21T07:34:48.508Z,43.40
2019-02-21T07:35:24.651Z,44.50
2019-02-21T07:36:00.211Z,44.97
2019-02-21T07:36:35.911Z,44.60
2019-02-21T07:37:18.712Z,41.63
2019-02-21T07:37:49.171Z,40.27
2019-02-21T07:38:25.476Z,41.27
2019-02-21T07:39:13.841Z,43.03
2019-02-21T07:39:40.168Z,43.60
2019-02-21T07:40:19.985Z,44.83
2019-02-21T07:40:54.038Z,46.30
2019-02-21T07:41:29.633Z,44.00
2019-02-21T07:42:05.250Z,44.90
2019-02-21T07:42:41.181Z,44.13
2019-02-21T07:43:17.123Z,47.00
2019-02-21T07:43:52.679Z,46.57
2019-02-21T07:44:28.218Z,52.53
2019-02-21T07:45:03.806Z,45.43
2019-02-21T07:45:39.748Z,42.63
2019-02-21T07:46:15.356Z,43.00
2019-02-21T07:46:53.460Z,47.33
2019-02-21T07:47:28.825Z,46.43
2019-02-21T07:48:04.454Z,45.77
2019-02-21T07:48:41.316Z,43.77
2019-02-21T07:49:16.863Z,41.37
2019-02-21T07:49:52.546Z,42.97
2019-02-21T07:50:28.096Z,47.53
2019-02-21T07:51:03.728Z,46.70
2019-02-21T07:51:41.380Z,44.43
2019-02-21T07:52:16.556Z,42.57
2019-02-21T07:53:02.013Z,46.30
2019-02-21T07:53:29.646Z,49.80
2019-02-21T07:54:05.530Z,47.67
2019-02-21T07:54:41.098Z,46.47
2019-02-21T07:55:16.719Z,49.40
2019-02-21T07:55:52.354Z,42.20
2019-02-21T07:56:27.935Z,43.00
2019-02-21T07:57:03.499Z,42.60
2019-02-21T07:57:39.084Z,45.20
2019-02-21T07:58:14.646Z,47.53
2019-02-21T07:58:50.238Z,45.10
2019-02-21T07:59:25.793Z,43.83
2019-02-21T08:00:02.421Z,42.07
2019-02-21T08:00:37.987Z,44.73
2019-02-21T08:01:13.544Z,46.03
2019-02-21T08:01:49.404Z,46.57